Morland, Kansas
Current Conditions -  °F | °C
As of 12:23 AM on Thursday 23 Oct 2014 (Local Time) from KHLC Reporting Station
Haze Haze  
Wind Chill: 52°   Ceiling: Unl
Heat Index: 52°   Visibility: 1.5mi
Dew Point: 51°   Wind: 0mph
Humidity: 97%   Direction: NA
Pressure: 30.06"   Gusts: NA
Location:  39.35°N, 100.08°W
Report Text: KHLC 230523Z AUTO 00000KT 1 1/2SM BR CLR 11/11 A3006 RMK AO2 T01110106
Loading
Personal Weather Stations






























Interactive Weather Map
Tropical Storm Tracking
New forecast layout! Learn more

10-Day Weather Forecast

Advertisements
Track Severe Weather on mobile